createdAt,value
2018-12-13T00:00:51.007Z,0.03
2018-12-13T00:11:10.717Z,0.04
2018-12-13T00:21:29.981Z,0.03
2018-12-13T00:31:49.577Z,-0.06
2018-12-13T00:42:10.031Z,-0.24
2018-12-13T00:52:29.511Z,-0.31
2018-12-13T01:02:48.637Z,-0.51
2018-12-13T01:13:08.458Z,-0.50
2018-12-13T01:23:28.761Z,-0.26
2018-12-13T01:33:49.249Z,-0.32
2018-12-13T01:44:08.645Z,-0.31
2018-12-13T01:54:29.152Z,-0.38
2018-12-13T02:04:48.902Z,-0.46
2018-12-13T02:15:09.640Z,-0.43
2018-12-13T02:25:28.904Z,-0.58
2018-12-13T02:35:48.326Z,-0.45
2018-12-13T02:46:07.740Z,-0.66
2018-12-13T02:56:26.936Z,-0.67
2018-12-13T03:06:46.857Z,-0.57
2018-12-13T03:17:06.984Z,-0.50
2018-12-13T03:27:26.850Z,-0.55
2018-12-13T03:37:46.793Z,-0.59
2018-12-13T03:48:06.383Z,-0.68
2018-12-13T03:58:26.146Z,-0.68
2018-12-13T04:08:45.561Z,-0.72
2018-12-13T04:19:05.258Z,-0.77
2018-12-13T04:29:24.817Z,-0.71
2018-12-13T04:39:44.792Z,-0.68
2018-12-13T04:50:05.052Z,-0.68
2018-12-13T05:00:24.922Z,-0.65
2018-12-13T05:10:54.769Z,-0.72
2018-12-13T05:21:14.854Z,-0.72
2018-12-13T05:31:34.397Z,-0.72
2018-12-13T05:41:54.581Z,-0.68
2018-12-13T05:52:14.052Z,-0.73
2018-12-13T06:02:34.450Z,-0.90
2018-12-13T06:12:57.206Z,-1.14
2018-12-13T06:23:17.758Z,-1.26
2018-12-13T06:33:37.895Z,-1.31
2018-12-13T06:43:57.771Z,-1.23
2018-12-13T06:54:17.473Z,-1.19
2018-12-13T07:04:38.224Z,-1.19
2018-12-13T07:14:57.813Z,-1.07
2018-12-13T07:25:17.100Z,-0.58
2018-12-13T07:35:36.208Z,-0.58
2018-12-13T07:45:56.565Z,-0.35
2018-12-13T07:56:17.594Z,-0.35
2018-12-13T08:06:36.676Z,-0.04
2018-12-13T08:16:56.228Z,-0.15
2018-12-13T08:27:17.323Z,-0.19
2018-12-13T08:37:37.318Z,-0.15
2018-12-13T08:47:56.802Z,-0.51
2018-12-13T08:58:17.488Z,-1.12
2018-12-13T09:08:37.299Z,-1.12
2018-12-13T09:18:58.020Z,-1.12
2018-12-13T09:29:17.902Z,-1.04
2018-12-13T09:39:37.785Z,-1.04
2018-12-13T09:49:57.345Z,-0.99
2018-12-13T10:00:17.636Z,-0.40
2018-12-13T10:10:37.385Z,-0.53
2018-12-13T10:20:57.214Z,-0.51
2018-12-13T10:31:17.606Z,-0.04
2018-12-13T10:41:36.781Z,0.43
2018-12-13T10:51:57.030Z,0.38
2018-12-13T11:02:32.469Z,0.54
2018-12-13T11:12:51.709Z,0.84
2018-12-13T11:23:11.585Z,0.71
2018-12-13T11:33:31.211Z,1.05
2018-12-13T11:43:55.371Z,0.19
2018-12-13T11:54:43.080Z,0.20
2018-12-13T12:05:02.776Z,0.34
2018-12-13T12:15:22.106Z,0.14
2018-12-13T12:25:41.826Z,0.05
2018-12-13T12:36:03.160Z,0.10
2018-12-13T12:46:26.125Z,-0.07
2018-12-13T12:56:47.278Z,-0.13
2018-12-13T13:07:07.046Z,-0.27
2018-12-13T13:17:26.960Z,-0.28
2018-12-13T13:27:47.443Z,-0.03
2018-12-13T13:38:06.433Z,-0.03
2018-12-13T13:48:26.154Z,-0.36
2018-12-13T13:58:53.969Z,-0.32
2018-12-13T14:09:13.694Z,-0.22
2018-12-13T14:19:33.982Z,-0.56
2018-12-13T14:29:54.471Z,-1.22
2018-12-13T14:40:15.355Z,-1.22
2018-12-13T14:50:34.835Z,-1.01
2018-12-13T15:00:55.238Z,-1.23
2018-12-13T15:11:16.283Z,-1.30
2018-12-13T15:21:35.727Z,-1.24
2018-12-13T15:31:59.514Z,-1.24
2018-12-13T15:42:15.751Z,-1.43
2018-12-13T15:52:36.206Z,-1.43
2018-12-13T16:02:55.439Z,-1.49
2018-12-13T16:13:15.695Z,-1.62
2018-12-13T16:23:35.283Z,-1.74
2018-12-13T16:33:55.865Z,-1.92
2018-12-13T16:44:17.215Z,-1.92
2018-12-13T16:54:36.527Z,-2.16
2018-12-13T17:05:03.167Z,-2.16
2018-12-13T17:15:17.811Z,-2.40
2018-12-13T17:25:39.809Z,-2.67
2018-12-13T17:36:03.888Z,-2.90
2018-12-13T17:46:24.890Z,-3.21
2018-12-13T17:56:47.750Z,-3.30
2018-12-13T18:07:10.359Z,-3.33
2018-12-13T18:17:30.848Z,-3.45
2018-12-13T18:27:52.174Z,-3.59
2018-12-13T18:38:13.659Z,-3.87
2018-12-13T18:48:36.831Z,-4.04
2018-12-13T18:58:58.861Z,-4.30
2018-12-13T19:09:21.923Z,-4.30
2018-12-13T19:19:43.834Z,-4.42
2018-12-13T19:30:07.150Z,-4.56
2018-12-13T19:40:30.577Z,-4.88
2018-12-13T19:50:52.803Z,-5.12
2018-12-13T20:01:14.780Z,-5.50
2018-12-13T20:11:36.370Z,-5.70
2018-12-13T20:21:58.057Z,-5.87
2018-12-13T20:32:19.870Z,-6.07
2018-12-13T20:42:42.508Z,-6.38
2018-12-13T20:53:04.357Z,-6.49
2018-12-13T21:03:25.700Z,-6.74
2018-12-13T21:13:47.247Z,-7.05
2018-12-13T21:24:09.161Z,-7.31
2018-12-13T21:34:32.491Z,-7.58
2018-12-13T21:44:53.550Z,-7.83
2018-12-13T21:55:14.533Z,-7.82
2018-12-13T22:05:35.647Z,-7.86
2018-12-13T22:15:55.918Z,-8.09
2018-12-13T22:26:17.337Z,-8.24
2018-12-13T22:36:39.369Z,-8.41
2018-12-13T22:46:58.957Z,-8.58
2018-12-13T22:57:19.711Z,-8.62
2018-12-13T23:07:39.554Z,-8.88
2018-12-13T23:17:59.600Z,-8.97
2018-12-13T23:28:19.221Z,-9.01
2018-12-13T23:38:38.551Z,-9.15
2018-12-13T23:48:59.243Z,-9.28
2018-12-13T23:59:18.997Z,-9.48
